Kingston, New Mexico
Current Conditions -  °F | °C
As of 6:53 PM on Monday 22 Dec 2014 (Local Time) from KTCS Reporting Station
Clear Clear  
Wind Chill: 58°   Ceiling: Unl
Heat Index: 58°   Visibility: 10mi
Dew Point: 27°   Wind: 14mph
Humidity: 31%   Direction: 310°NW
Pressure: 29.77"   Gusts: 28mph
Location:  32.8972°N, 107.644°W
Report Text: KTCS 230153Z AUTO 31012G24KT 10SM CLR 14/M03 A2977 RMK AO2 PK WND 31034/0126 SLP030 T01441028 TSNO
Loading
Personal Weather Stations






























Interactive Weather Map New forecast layout! Learn more

10-Day Weather Forecast

Advertisements
Track Severe Weather on mobile